sensor_id;sensor_type;location;lat;lon;timestamp;pressure;altitude;pressure_sealevel;temperature;humidity
11395;BME280;5753;54.402;10.220;2024-01-07T00:00:37;102405.47;;;-0.38;75.93
11395;BME280;5753;54.402;10.220;2024-01-07T00:03:04;102411.25;;;-0.42;76.20
11395;BME280;5753;54.402;10.220;2024-01-07T00:05:32;102424.81;;;-0.41;76.17
11395;BME280;5753;54.402;10.220;2024-01-07T00:07:58;102420.69;;;-0.38;76.41
11395;BME280;5753;54.402;10.220;2024-01-07T00:10:25;102420.69;;;-0.38;76.23
11395;BME280;5753;54.402;10.220;2024-01-07T00:12:52;102425.75;;;-0.38;76.31
11395;BME280;5753;54.402;10.220;2024-01-07T00:15:20;102436.03;;;-0.33;76.71
11395;BME280;5753;54.402;10.220;2024-01-07T00:17:48;102424.28;;;-0.31;76.43
11395;BME280;5753;54.402;10.220;2024-01-07T00:20:15;102424.19;;;-0.34;75.95
11395;BME280;5753;54.402;10.220;2024-01-07T00:22:42;102432.63;;;-0.35;76.56
11395;BME280;5753;54.402;10.220;2024-01-07T00:25:10;102436.03;;;-0.35;75.57
11395;BME280;5753;54.402;10.220;2024-01-07T00:27:36;102444.44;;;-0.36;75.88
11395;BME280;5753;54.402;10.220;2024-01-07T00:30:02;102440.19;;;-0.37;75.65
11395;BME280;5753;54.402;10.220;2024-01-07T00:32:29;102450.28;;;-0.38;76.20
11395;BME280;5753;54.402;10.220;2024-01-07T00:34:56;102446.03;;;-0.39;76.38
11395;BME280;5753;54.402;10.220;2024-01-07T00:37:24;102457.00;;;-0.40;75.61
11395;BME280;5753;54.402;10.220;2024-01-07T00:39:51;102452.06;;;-0.36;75.46
11395;BME280;5753;54.402;10.220;2024-01-07T00:42:18;102458.00;;;-0.35;75.55
11395;BME280;5753;54.402;10.220;2024-01-07T00:44:46;102457.06;;;-0.37;75.62
11395;BME280;5753;54.402;10.220;2024-01-07T00:47:14;102455.34;;;-0.38;75.84
11395;BME280;5753;54.402;10.220;2024-01-07T00:49:41;102459.75;;;-0.33;74.37
11395;BME280;5753;54.402;10.220;2024-01-07T00:52:08;102460.53;;;-0.35;74.89
11395;BME280;5753;54.402;10.220;2024-01-07T00:54:35;102467.22;;;-0.37;74.47
11395;BME280;5753;54.402;10.220;2024-01-07T00:57:03;102467.16;;;-0.40;74.25
11395;BME280;5753;54.402;10.220;2024-01-07T00:59:31;102474.66;;;-0.44;74.70
11395;BME280;5753;54.402;10.220;2024-01-07T01:02:00;102483.19;;;-0.41;74.86
11395;BME280;5753;54.402;10.220;2024-01-07T01:04:28;102480.59;;;-0.43;76.25
11395;BME280;5753;54.402;10.220;2024-01-07T01:06:56;102478.03;;;-0.43;78.73
11395;BME280;5753;54.402;10.220;2024-01-07T01:09:23;102479.56;;;-0.48;79.71
11395;BME280;5753;54.402;10.220;2024-01-07T01:11:50;102487.88;;;-0.54;80.22
11395;BME280;5753;54.402;10.220;2024-01-07T01:14:18;102488.56;;;-0.59;80.07
11395;BME280;5753;54.402;10.220;2024-01-07T01:16:46;102484.34;;;-0.59;81.14
11395;BME280;5753;54.402;10.220;2024-01-07T01:19:13;102482.75;;;-0.55;81.42
11395;BME280;5753;54.402;10.220;2024-01-07T01:21:40;102491.19;;;-0.56;80.48
11395;BME280;5753;54.402;10.220;2024-01-07T01:24:08;102493.63;;;-0.59;80.76
11395;BME280;5753;54.402;10.220;2024-01-07T01:26:35;102498.50;;;-0.65;80.80
11395;BME280;5753;54.402;10.220;2024-01-07T01:29:03;102506.91;;;-0.66;80.95
11395;BME280;5753;54.402;10.220;2024-01-07T01:31:29;102505.25;;;-0.66;81.06
11395;BME280;5753;54.402;10.220;2024-01-07T01:33:57;102509.56;;;-0.63;81.37
11395;BME280;5753;54.402;10.220;2024-01-07T01:36:23;102505.25;;;-0.66;81.62
11395;BME280;5753;54.402;10.220;2024-01-07T01:38:51;102506.91;;;-0.66;81.69
11395;BME280;5753;54.402;10.220;2024-01-07T01:41:19;102515.47;;;-0.63;81.94
11395;BME280;5753;54.402;10.220;2024-01-07T01:43:47;102513.81;;;-0.62;81.58
11395;BME280;5753;54.402;10.220;2024-01-07T01:46:15;102518.88;;;-0.62;81.05
11395;BME280;5753;54.402;10.220;2024-01-07T01:48:43;102524.78;;;-0.63;80.57
11395;BME280;5753;54.402;10.220;2024-01-07T01:51:10;102521.41;;;-0.62;79.80
11395;BME280;5753;54.402;10.220;2024-01-07T01:53:38;102530.63;;;-0.66;79.72
11395;BME280;5753;54.402;10.220;2024-01-07T01:56:05;102527.28;;;-0.65;79.36
11395;BME280;5753;54.402;10.220;2024-01-07T01:58:33;102534.09;;;-0.62;80.76
11395;BME280;5753;54.402;10.220;2024-01-07T02:01:01;102538.28;;;-0.64;81.41
11395;BME280;5753;54.402;10.220;2024-01-07T02:03:29;102535.63;;;-0.67;81.28
11395;BME280;5753;54.402;10.220;2024-01-07T02:06:00;102532.19;;;-0.69;80.98
11395;BME280;5753;54.402;10.220;2024-01-07T02:08:26;102539.75;;;-0.71;81.81
11395;BME280;5753;54.402;10.220;2024-01-07T02:10:54;102538.06;;;-0.70;81.91
11395;BME280;5753;54.402;10.220;2024-01-07T02:13:22;102546.50;;;-0.71;81.41
11395;BME280;5753;54.402;10.220;2024-01-07T02:15:50;102537.13;;;-0.74;82.11
11395;BME280;5753;54.402;10.220;2024-01-07T02:18:16;102540.47;;;-0.75;82.09
11395;BME280;5753;54.402;10.220;2024-01-07T02:20:43;102542.03;;;-0.78;82.32
11395;BME280;5753;54.402;10.220;2024-01-07T02:23:09;102538.53;;;-0.82;82.47
11395;BME280;5753;54.402;10.220;2024-01-07T02:25:37;102546.91;;;-0.84;82.66
11395;BME280;5753;54.402;10.220;2024-01-07T02:28:05;102547.66;;;-0.87;82.81
11395;BME280;5753;54.402;10.220;2024-01-07T02:30:32;102550.16;;;-0.89;83.18
11395;BME280;5753;54.402;10.220;2024-01-07T02:33:02;102551.75;;;-0.92;82.99
11395;BME280;5753;54.402;10.220;2024-01-07T02:35:31;102555.81;;;-0.96;83.02
11395;BME280;5753;54.402;10.220;2024-01-07T02:37:59;102557.50;;;-0.96;82.85
11395;BME280;5753;54.402;10.220;2024-01-07T02:40:25;102566.72;;;-0.98;83.09
11395;BME280;5753;54.402;10.220;2024-01-07T02:42:53;102570.78;;;-1.03;82.31
11395;BME280;5753;54.402;10.220;2024-01-07T02:45:19;102561.44;;;-1.04;82.63
11395;BME280;5753;54.402;10.220;2024-01-07T02:47:46;102580.84;;;-1.05;82.40
11395;BME280;5753;54.402;10.220;2024-01-07T02:50:14;102582.53;;;-1.05;82.70
11395;BME280;5753;54.402;10.220;2024-01-07T02:52:42;102596.06;;;-1.05;82.40
11395;BME280;5753;54.402;10.220;2024-01-07T02:55:08;102590.91;;;-1.08;82.58
11395;BME280;5753;54.402;10.220;2024-01-07T02:57:36;102590.84;;;-1.09;83.04
11395;BME280;5753;54.402;10.220;2024-01-07T03:00:04;102595.69;;;-1.15;82.89
11395;BME280;5753;54.402;10.220;2024-01-07T03:02:31;102599.09;;;-1.15;83.05
11395;BME280;5753;54.402;10.220;2024-01-07T03:04:59;102607.47;;;-1.17;83.20
11395;BME280;5753;54.402;10.220;2024-01-07T03:07:26;102611.44;;;-1.24;83.24
11395;BME280;5753;54.402;10.220;2024-01-07T03:09:54;102605.41;;;-1.27;82.66
11395;BME280;5753;54.402;10.220;2024-01-07T03:12:22;102606.09;;;-1.32;82.34
11395;BME280;5753;54.402;10.220;2024-01-07T03:14:50;102611.13;;;-1.33;82.65
11395;BME280;5753;54.402;10.220;2024-01-07T03:17:17;102612.84;;;-1.32;82.93
11395;BME280;5753;54.402;10.220;2024-01-07T03:19:44;102615.22;;;-1.37;83.05
11395;BME280;5753;54.402;10.220;2024-01-07T03:22:12;102621.47;;;-1.49;82.70
11395;BME280;5753;54.402;10.220;2024-01-07T03:24:38;102628.41;;;-1.67;82.60
11395;BME280;5753;54.402;10.220;2024-01-07T03:27:06;102618.63;;;-1.81;82.52
11395;BME280;5753;54.402;10.220;2024-01-07T03:29:32;102630.94;;;-1.90;82.71
11395;BME280;5753;54.402;10.220;2024-01-07T03:32:00;102631.56;;;-1.95;82.96
11395;BME280;5753;54.402;10.220;2024-01-07T03:34:29;102634.00;;;-1.97;83.62
11395;BME280;5753;54.402;10.220;2024-01-07T03:36:57;102638.03;;;-2.02;83.10
11395;BME280;5753;54.402;10.220;2024-01-07T03:39:25;102638.16;;;-1.99;83.07
11395;BME280;5753;54.402;10.220;2024-01-07T03:41:55;102640.91;;;-1.93;83.35
11395;BME280;5753;54.402;10.220;2024-01-07T03:44:22;102641.06;;;-1.90;83.02
11395;BME280;5753;54.402;10.220;2024-01-07T03:46:52;102648.69;;;-1.88;82.94
11395;BME280;5753;54.402;10.220;2024-01-07T03:49:20;102647.16;;;-1.85;83.50
11395;BME280;5753;54.402;10.220;2024-01-07T03:51:47;102638.47;;;-1.69;83.17
11395;BME280;5753;54.402;10.220;2024-01-07T03:54:14;102632.78;;;-1.63;83.27
11395;BME280;5753;54.402;10.220;2024-01-07T03:56:43;102643.84;;;-1.61;82.85
11395;BME280;5753;54.402;10.220;2024-01-07T03:59:13;102640.59;;;-1.57;82.73
11395;BME280;5753;54.402;10.220;2024-01-07T04:01:41;102638.88;;;-1.58;82.88
11395;BME280;5753;54.402;10.220;2024-01-07T04:04:07;102639.75;;;-1.58;83.41
11395;BME280;5753;54.402;10.220;2024-01-07T04:06:35;102641.56;;;-1.54;83.26
11395;BME280;5753;54.402;10.220;2024-01-07T04:09:01;102649.31;;;-1.51;82.67
11395;BME280;5753;54.402;10.220;2024-01-07T04:11:31;102643.38;;;-1.51;82.51
11395;BME280;5753;54.402;10.220;2024-01-07T04:13:59;102650.84;;;-1.54;83.09
11395;BME280;5753;54.402;10.220;2024-01-07T04:16:26;102655.19;;;-1.52;82.56
11395;BME280;5753;54.402;10.220;2024-01-07T04:18:54;102661.56;;;-1.61;83.28
11395;BME280;5753;54.402;10.220;2024-01-07T04:21:22;102661.31;;;-1.67;83.00
11395;BME280;5753;54.402;10.220;2024-01-07T04:23:50;102673.75;;;-1.73;83.54
11395;BME280;5753;54.402;10.220;2024-01-07T04:26:16;102675.22;;;-1.79;83.30
11395;BME280;5753;54.402;10.220;2024-01-07T04:28:43;102677.97;;;-1.95;83.11
11395;BME280;5753;54.402;10.220;2024-01-07T04:31:13;102669.13;;;-1.84;83.72
11395;BME280;5753;54.402;10.220;2024-01-07T04:33:39;102679.03;;;-1.90;83.13
11395;BME280;5753;54.402;10.220;2024-01-07T04:36:06;102675.75;;;-1.87;83.44
11395;BME280;5753;54.402;10.220;2024-01-07T04:38:32;102675.13;;;-1.82;82.65
11395;BME280;5753;54.402;10.220;2024-01-07T04:41:00;102677.72;;;-1.80;83.42
11395;BME280;5753;54.402;10.220;2024-01-07T04:43:26;102679.72;;;-1.94;83.11
11395;BME280;5753;54.402;10.220;2024-01-07T04:45:54;102676.53;;;-1.88;83.66
11395;BME280;5753;54.402;10.220;2024-01-07T04:48:22;102680.63;;;-1.92;83.31
11395;BME280;5753;54.402;10.220;2024-01-07T04:50:48;102690.13;;;-1.86;82.76
11395;BME280;5753;54.402;10.220;2024-01-07T04:53:16;102690.03;;;-1.89;83.22
11395;BME280;5753;54.402;10.220;2024-01-07T04:55:43;102695.75;;;-1.93;83.24
11395;BME280;5753;54.402;10.220;2024-01-07T04:58:11;102693.91;;;-1.97;83.25
11395;BME280;5753;54.402;10.220;2024-01-07T05:00:38;102695.09;;;-1.89;82.58
11395;BME280;5753;54.402;10.220;2024-01-07T05:03:06;102694.59;;;-1.81;82.44
11395;BME280;5753;54.402;10.220;2024-01-07T05:05:34;102699.50;;;-1.84;82.94
11395;BME280;5753;54.402;10.220;2024-01-07T05:08:03;102705.44;;;-1.83;83.18
11395;BME280;5753;54.402;10.220;2024-01-07T05:10:31;102711.38;;;-1.83;82.90
11395;BME280;5753;54.402;10.220;2024-01-07T05:12:58;102715.28;;;-1.91;83.88
11395;BME280;5753;54.402;10.220;2024-01-07T05:15:32;102719.22;;;-1.97;83.89
11395;BME280;5753;54.402;10.220;2024-01-07T05:18:01;102720.75;;;-2.01;83.00
11395;BME280;5753;54.402;10.220;2024-01-07T05:20:29;102723.28;;;-2.01;83.40
11395;BME280;5753;54.402;10.220;2024-01-07T05:22:57;102726.13;;;-2.14;83.16
11395;BME280;5753;54.402;10.220;2024-01-07T05:25:24;102728.09;;;-2.07;83.58
11395;BME280;5753;54.402;10.220;2024-01-07T05:27:50;102735.38;;;-2.14;83.53
11395;BME280;5753;54.402;10.220;2024-01-07T05:30:17;102734.59;;;-2.13;83.81
11395;BME280;5753;54.402;10.220;2024-01-07T05:32:45;102739.47;;;-2.18;83.84
11395;BME280;5753;54.402;10.220;2024-01-07T05:35:12;102733.13;;;-2.08;83.19
11395;BME280;5753;54.402;10.220;2024-01-07T05:37:38;102741.31;;;-2.14;83.26
11395;BME280;5753;54.402;10.220;2024-01-07T05:40:05;102732.19;;;-2.10;83.64
11395;BME280;5753;54.402;10.220;2024-01-07T05:42:33;102740.44;;;-2.14;83.11
11395;BME280;5753;54.402;10.220;2024-01-07T05:44:59;102737.53;;;-2.24;82.97
11395;BME280;5753;54.402;10.220;2024-01-07T05:47:27;102747.69;;;-2.22;82.88
11395;BME280;5753;54.402;10.220;2024-01-07T05:49:55;102745.72;;;-2.29;83.39
11395;BME280;5753;54.402;10.220;2024-01-07T05:52:22;102748.06;;;-2.34;83.79
11395;BME280;5753;54.402;10.220;2024-01-07T05:54:50;102748.00;;;-2.35;83.35
11395;BME280;5753;54.402;10.220;2024-01-07T05:57:17;102751.19;;;-2.39;82.56
11395;BME280;5753;54.402;10.220;2024-01-07T05:59:45;102751.88;;;-2.43;82.97
11395;BME280;5753;54.402;10.220;2024-01-07T06:02:13;102752.38;;;-2.50;82.57
11395;BME280;5753;54.402;10.220;2024-01-07T06:04:39;102751.41;;;-2.54;82.47
11395;BME280;5753;54.402;10.220;2024-01-07T06:07:07;102761.25;;;-2.60;83.05
11395;BME280;5753;54.402;10.220;2024-01-07T06:09:35;102764.13;;;-2.52;83.75
11395;BME280;5753;54.402;10.220;2024-01-07T06:12:03;102777.16;;;-2.43;83.25
11395;BME280;5753;54.402;10.220;2024-01-07T06:14:30;102781.34;;;-2.44;82.92
11395;BME280;5753;54.402;10.220;2024-01-07T06:16:56;102777.56;;;-2.34;82.83
11395;BME280;5753;54.402;10.220;2024-01-07T06:19:24;102784.59;;;-2.27;82.16
11395;BME280;5753;54.402;10.220;2024-01-07T06:21:50;102781.81;;;-2.33;82.04
11395;BME280;5753;54.402;10.220;2024-01-07T06:24:20;102795.25;;;-2.34;81.90
11395;BME280;5753;54.402;10.220;2024-01-07T06:26:46;102797.19;;;-2.29;81.77
11395;BME280;5753;54.402;10.220;2024-01-07T06:29:16;102805.66;;;-2.28;80.92
11395;BME280;5753;54.402;10.220;2024-01-07T06:31:45;102795.47;;;-2.30;80.71
11395;BME280;5753;54.402;10.220;2024-01-07T06:34:15;102803.44;;;-2.40;80.23
11395;BME280;5753;54.402;10.220;2024-01-07T06:36:42;102808.22;;;-2.46;80.52
11395;BME280;5753;54.402;10.220;2024-01-07T06:39:10;102811.44;;;-2.50;80.29
11395;BME280;5753;54.402;10.220;2024-01-07T06:41:36;102818.81;;;-2.35;79.89
11395;BME280;5753;54.402;10.220;2024-01-07T06:44:04;102818.81;;;-2.54;80.68
11395;BME280;5753;54.402;10.220;2024-01-07T06:46:32;102818.28;;;-2.67;81.10
11395;BME280;5753;54.402;10.220;2024-01-07T06:49:01;102826.81;;;-2.45;81.08
11395;BME280;5753;54.402;10.220;2024-01-07T06:51:29;102825.94;;;-2.46;81.18
11395;BME280;5753;54.402;10.220;2024-01-07T06:53:57;102822.69;;;-2.63;81.26
11395;BME280;5753;54.402;10.220;2024-01-07T06:56:25;102837.06;;;-2.61;80.88
11395;BME280;5753;54.402;10.220;2024-01-07T06:58:51;102840.59;;;-2.76;80.27
11395;BME280;5753;54.402;10.220;2024-01-07T07:01:22;102846.16;;;-2.65;79.42
11395;BME280;5753;54.402;10.220;2024-01-07T07:03:53;102841.72;;;-2.88;80.12
11395;BME280;5753;54.402;10.220;2024-01-07T07:06:20;102847.06;;;-2.82;78.92
11395;BME280;5753;54.402;10.220;2024-01-07T07:08:46;102851.03;;;-2.87;78.68
11395;BME280;5753;54.402;10.220;2024-01-07T07:11:15;102846.78;;;-2.88;78.17
11395;BME280;5753;54.402;10.220;2024-01-07T07:13:43;102846.84;;;-2.87;78.91
11395;BME280;5753;54.402;10.220;2024-01-07T07:16:13;102854.69;;;-2.81;78.13
11395;BME280;5753;54.402;10.220;2024-01-07T07:18:41;102848.00;;;-2.98;78.84
11395;BME280;5753;54.402;10.220;2024-01-07T07:21:07;102855.38;;;-3.02;78.54
11395;BME280;5753;54.402;10.220;2024-01-07T07:23:34;102862.22;;;-3.00;79.36
11395;BME280;5753;54.402;10.220;2024-01-07T07:26:01;102862.28;;;-2.98;78.81
11395;BME280;5753;54.402;10.220;2024-01-07T07:28:28;102872.97;;;-3.04;78.96
11395;BME280;5753;54.402;10.220;2024-01-07T07:30:55;102874.94;;;-2.98;78.61
11395;BME280;5753;54.402;10.220;2024-01-07T07:33:23;102877.47;;;-2.98;79.18
11395;BME280;5753;54.402;10.220;2024-01-07T07:35:53;102881.06;;;-2.93;79.02
11395;BME280;5753;54.402;10.220;2024-01-07T07:38:21;102892.84;;;-2.94;79.14
11395;BME280;5753;54.402;10.220;2024-01-07T07:40:48;102881.94;;;-2.93;78.35
11395;BME280;5753;54.402;10.220;2024-01-07T07:43:20;102890.31;;;-2.94;78.15
11395;BME280;5753;54.402;10.220;2024-01-07T07:45:48;102886.72;;;-2.81;78.39
11395;BME280;5753;54.402;10.220;2024-01-07T07:48:15;102896.44;;;-2.89;78.12
11395;BME280;5753;54.402;10.220;2024-01-07T07:50:44;102901.00;;;-2.82;78.73
11395;BME280;5753;54.402;10.220;2024-01-07T07:53:10;102899.34;;;-2.81;78.49
11395;BME280;5753;54.402;10.220;2024-01-07T07:55:37;102901.16;;;-2.79;78.27
11395;BME280;5753;54.402;10.220;2024-01-07T07:58:04;102902.66;;;-2.82;77.81
11395;BME280;5753;54.402;10.220;2024-01-07T08:00:32;102909.47;;;-2.81;78.23
11395;BME280;5753;54.402;10.220;2024-01-07T08:02:59;102918.13;;;-2.94;78.48
11395;BME280;5753;54.402;10.220;2024-01-07T08:05:26;102913.78;;;-2.96;78.53
11395;BME280;5753;54.402;10.220;2024-01-07T08:07:53;102914.06;;;-2.90;78.56
11395;BME280;5753;54.402;10.220;2024-01-07T08:10:21;102921.81;;;-2.87;77.67
11395;BME280;5753;54.402;10.220;2024-01-07T08:12:49;102918.97;;;-2.76;77.55
11395;BME280;5753;54.402;10.220;2024-01-07T08:15:16;102928.81;;;-2.82;77.72
11395;BME280;5753;54.402;10.220;2024-01-07T08:17:42;102927.28;;;-2.78;77.77
11395;BME280;5753;54.402;10.220;2024-01-07T08:20:10;102929.81;;;-2.78;77.37
11395;BME280;5753;54.402;10.220;2024-01-07T08:22:37;102934.97;;;-2.77;76.88
11395;BME280;5753;54.402;10.220;2024-01-07T08:25:04;102932.34;;;-2.78;76.66
11395;BME280;5753;54.402;10.220;2024-01-07T08:27:32;102938.63;;;-2.88;76.95
11395;BME280;5753;54.402;10.220;2024-01-07T08:30:01;102945.22;;;-2.91;76.90
11395;BME280;5753;54.402;10.220;2024-01-07T08:32:28;102941.66;;;-2.95;76.63
11395;BME280;5753;54.402;10.220;2024-01-07T08:34:57;102944.91;;;-2.80;76.33
11395;BME280;5753;54.402;10.220;2024-01-07T08:37:26;102945.69;;;-2.81;76.20
11395;BME280;5753;54.402;10.220;2024-01-07T08:39:54;102945.63;;;-2.65;76.03
11395;BME280;5753;54.402;10.220;2024-01-07T08:42:23;102945.72;;;-2.63;76.32
11395;BME280;5753;54.402;10.220;2024-01-07T08:44:51;102949.81;;;-2.65;75.87
11395;BME280;5753;54.402;10.220;2024-01-07T08:47:20;102954.19;;;-2.63;75.28
11395;BME280;5753;54.402;10.220;2024-01-07T08:49:46;102962.75;;;-2.59;75.81
11395;BME280;5753;54.402;10.220;2024-01-07T08:52:14;102961.97;;;-2.58;76.12
11395;BME280;5753;54.402;10.220;2024-01-07T08:54:41;102970.28;;;-2.60;75.57
11395;BME280;5753;54.402;10.220;2024-01-07T08:57:08;102968.81;;;-2.55;75.92
11395;BME280;5753;54.402;10.220;2024-01-07T08:59:39;102967.91;;;-2.57;75.03
11395;BME280;5753;54.402;10.220;2024-01-07T09:02:09;102971.00;;;-2.45;74.82
11395;BME280;5753;54.402;10.220;2024-01-07T09:04:37;102973.81;;;-2.39;74.98
11395;BME280;5753;54.402;10.220;2024-01-07T09:07:05;102967.88;;;-2.40;75.17
11395;BME280;5753;54.402;10.220;2024-01-07T09:09:33;102971.56;;;-2.33;75.05
11395;BME280;5753;54.402;10.220;2024-01-07T09:11:59;102975.69;;;-2.35;74.37
11395;BME280;5753;54.402;10.220;2024-01-07T09:14:27;102985.50;;;-2.41;73.36
11395;BME280;5753;54.402;10.220;2024-01-07T09:16:54;102991.88;;;-2.49;72.06
11395;BME280;5753;54.402;10.220;2024-01-07T09:19:21;102991.44;;;-2.58;70.81
11395;BME280;5753;54.402;10.220;2024-01-07T09:21:49;102992.91;;;-2.64;68.53
11395;BME280;5753;54.402;10.220;2024-01-07T09:24:17;102994.78;;;-2.59;67.69
11395;BME280;5753;54.402;10.220;2024-01-07T09:26:46;102991.31;;;-2.44;66.17
11395;BME280;5753;54.402;10.220;2024-01-07T09:29:12;102998.25;;;-2.40;65.84
11395;BME280;5753;54.402;10.220;2024-01-07T09:31:41;102996.72;;;-2.36;65.47
11395;BME280;5753;54.402;10.220;2024-01-07T09:34:09;102998.53;;;-2.34;64.41
11395;BME280;5753;54.402;10.220;2024-01-07T09:36:36;103002.84;;;-2.31;63.70
11395;BME280;5753;54.402;10.220;2024-01-07T09:39:04;102993.88;;;-2.25;64.96
11395;BME280;5753;54.402;10.220;2024-01-07T09:41:32;102993.31;;;-2.19;66.33
11395;BME280;5753;54.402;10.220;2024-01-07T09:44:00;102999.44;;;-2.14;67.31
11395;BME280;5753;54.402;10.220;2024-01-07T09:46:30;102999.72;;;-2.08;67.76
11395;BME280;5753;54.402;10.220;2024-01-07T09:48:58;102991.47;;;-2.04;69.14
11395;BME280;5753;54.402;10.220;2024-01-07T09:51:28;102997.66;;;-1.97;69.57
11395;BME280;5753;54.402;10.220;2024-01-07T09:53:58;103000.69;;;-1.87;69.67
11395;BME280;5753;54.402;10.220;2024-01-07T09:56:35;102999.03;;;-1.86;70.83
11395;BME280;5753;54.402;10.220;2024-01-07T09:59:02;103005.06;;;-1.83;71.71
11395;BME280;5753;54.402;10.220;2024-01-07T10:01:31;103007.97;;;-1.75;71.29
11395;BME280;5753;54.402;10.220;2024-01-07T10:04:00;103002.34;;;-1.68;71.55
11395;BME280;5753;54.402;10.220;2024-01-07T10:06:28;103007.63;;;-1.63;70.86
11395;BME280;5753;54.402;10.220;2024-01-07T10:08:54;103009.97;;;-1.49;70.48
11395;BME280;5753;54.402;10.220;2024-01-07T10:11:23;102997.84;;;-1.37;70.01
11395;BME280;5753;54.402;10.220;2024-01-07T10:13:49;103007.69;;;-1.23;69.71
11395;BME280;5753;54.402;10.220;2024-01-07T10:16:20;103001.94;;;-1.19;69.58
11395;BME280;5753;54.402;10.220;2024-01-07T10:18:47;103002.22;;;-1.33;69.44
11395;BME280;5753;54.402;10.220;2024-01-07T10:21:14;103003.34;;;-1.45;68.94
11395;BME280;5753;54.402;10.220;2024-01-07T10:23:42;102997.28;;;-1.49;68.98
11395;BME280;5753;54.402;10.220;2024-01-07T10:26:10;103008.50;;;-1.63;68.18
11395;BME280;5753;54.402;10.220;2024-01-07T10:28:37;103012.88;;;-1.59;68.28
11395;BME280;5753;54.402;10.220;2024-01-07T10:31:05;103005.16;;;-1.43;67.30
11395;BME280;5753;54.402;10.220;2024-01-07T10:33:32;103010.63;;;-1.72;66.29
11395;BME280;5753;54.402;10.220;2024-01-07T10:36:15;103013.94;;;-1.73;66.30
11395;BME280;5753;54.402;10.220;2024-01-07T10:38:55;103015.78;;;-1.88;66.89
11395;BME280;5753;54.402;10.220;2024-01-07T10:41:22;103008.16;;;-1.90;66.94
11395;BME280;5753;54.402;10.220;2024-01-07T10:43:50;103016.84;;;-1.65;66.80
11395;BME280;5753;54.402;10.220;2024-01-07T10:46:18;103015.50;;;-1.77;66.37
11395;BME280;5753;54.402;10.220;2024-01-07T10:48:59;103009.56;;;-1.77;66.52
11395;BME280;5753;54.402;10.220;2024-01-07T10:51:28;103020.44;;;-1.80;66.88
11395;BME280;5753;54.402;10.220;2024-01-07T10:53:56;103016.69;;;-1.68;66.04
11395;BME280;5753;54.402;10.220;2024-01-07T10:56:29;103009.38;;;-1.62;66.26
11395;BME280;5753;54.402;10.220;2024-01-07T10:58:59;103019.47;;;-1.82;65.93
11395;BME280;5753;54.402;10.220;2024-01-07T11:01:27;103021.81;;;-1.67;67.09
11395;BME280;5753;54.402;10.220;2024-01-07T11:04:17;103024.66;;;-1.79;66.72
11395;BME280;5753;54.402;10.220;2024-01-07T11:07:40;103024.09;;;-1.54;67.10
11395;BME280;5753;54.402;10.220;2024-01-07T11:10:49;103026.91;;;-1.67;66.61
11395;BME280;5753;54.402;10.220;2024-01-07T11:13:08;103028.25;;;-1.56;66.20
11395;BME280;5753;54.402;10.220;2024-01-07T11:16:06;103023.78;;;-1.61;65.15
11395;BME280;5753;54.402;10.220;2024-01-07T11:18:46;103027.75;;;-1.66;66.01
11395;BME280;5753;54.402;10.220;2024-01-07T11:21:24;103025.63;;;-1.57;66.54
11395;BME280;5753;54.402;10.220;2024-01-07T11:24:01;103027.97;;;-1.62;66.38
11395;BME280;5753;54.402;10.220;2024-01-07T11:26:32;103020.50;;;-1.59;66.65
11395;BME280;5753;54.402;10.220;2024-01-07T11:29:01;103031.22;;;-1.64;66.48
11395;BME280;5753;54.402;10.220;2024-01-07T11:32:03;103020.75;;;-1.72;67.08
11395;BME280;5753;54.402;10.220;2024-01-07T11:34:42;103030.69;;;-1.57;67.92
11395;BME280;5753;54.402;10.220;2024-01-07T11:37:12;103022.56;;;-1.50;66.67
11395;BME280;5753;54.402;10.220;2024-01-07T11:39:42;103028.16;;;-1.57;66.09
11395;BME280;5753;54.402;10.220;2024-01-07T11:42:12;103020.69;;;-1.35;66.44
11395;BME280;5753;54.402;10.220;2024-01-07T11:44:53;103011.59;;;-1.30;66.27
11395;BME280;5753;54.402;10.220;2024-01-07T11:47:22;103022.34;;;-1.55;65.91
11395;BME280;5753;54.402;10.220;2024-01-07T11:49:49;103028.84;;;-1.98;66.64
11395;BME280;5753;54.402;10.220;2024-01-07T11:52:17;103030.25;;;-2.05;66.72
11395;BME280;5753;54.402;10.220;2024-01-07T11:54:45;103036.75;;;-2.10;67.68
11395;BME280;5753;54.402;10.220;2024-01-07T11:57:12;103041.72;;;-2.47;66.78
11395;BME280;5753;54.402;10.220;2024-01-07T11:59:39;103027.22;;;-2.33;66.34
11395;BME280;5753;54.402;10.220;2024-01-07T12:02:07;103035.75;;;-2.13;65.69
11395;BME280;5753;54.402;10.220;2024-01-07T12:04:35;103031.34;;;-1.81;66.09
11395;BME280;5753;54.402;10.220;2024-01-07T12:07:03;103026.63;;;-1.54;64.16
11395;BME280;5753;54.402;10.220;2024-01-07T12:09:32;103025.91;;;-1.32;64.77
11395;BME280;5753;54.402;10.220;2024-01-07T12:12:00;103023.31;;;-0.94;63.91
11395;BME280;5753;54.402;10.220;2024-01-07T12:14:28;103024.03;;;-1.17;64.56
11395;BME280;5753;54.402;10.220;2024-01-07T12:17:02;103021.63;;;-0.93;64.02
11395;BME280;5753;54.402;10.220;2024-01-07T12:19:28;103031.75;;;-1.14;65.13
11395;BME280;5753;54.402;10.220;2024-01-07T12:22:03;103026.97;;;-1.06;64.95
11395;BME280;5753;54.402;10.220;2024-01-07T12:24:31;103026.63;;;-1.54;65.18
11395;BME280;5753;54.402;10.220;2024-01-07T12:27:06;103038.97;;;-1.61;66.22
11395;BME280;5753;54.402;10.220;2024-01-07T12:29:32;103034.41;;;-1.49;66.88
11395;BME280;5753;54.402;10.220;2024-01-07T12:31:59;103035.00;;;-1.74;67.05
11395;BME280;5753;54.402;10.220;2024-01-07T12:34:30;103039.88;;;-1.79;67.76
11395;BME280;5753;54.402;10.220;2024-01-07T12:36:57;103035.94;;;-1.72;67.92
11395;BME280;5753;54.402;10.220;2024-01-07T12:39:26;103034.38;;;-1.88;68.49
11395;BME280;5753;54.402;10.220;2024-01-07T12:41:56;103028.03;;;-1.97;68.95
11395;BME280;5753;54.402;10.220;2024-01-07T12:44:27;103037.03;;;-2.04;69.33
11395;BME280;5753;54.402;10.220;2024-01-07T12:46:54;103038.88;;;-2.19;69.39
11395;BME280;5753;54.402;10.220;2024-01-07T12:49:21;103042.38;;;-1.98;69.92
11395;BME280;5753;54.402;10.220;2024-01-07T12:51:48;103037.47;;;-2.12;69.75
11395;BME280;5753;54.402;10.220;2024-01-07T12:54:16;103044.84;;;-2.17;70.19
11395;BME280;5753;54.402;10.220;2024-01-07T12:56:44;103046.56;;;-1.98;70.13